sensor_id;sensor_type;location;lat;lon;timestamp;pressure;altitude;pressure_sealevel;temperature;humidity
50103;BME280;35993;52.604;10.078;2023-05-23T00:01:41;100907.78;;;17.51;100.00
50103;BME280;35993;52.604;10.078;2023-05-23T00:04:07;100907.34;;;17.64;100.00
50103;BME280;35993;52.604;10.078;2023-05-23T00:06:33;100893.38;;;17.66;100.00
50103;BME280;35993;52.604;10.078;2023-05-23T00:09:01;100895.81;;;17.62;100.00
50103;BME280;35993;52.604;10.078;2023-05-23T00:11:27;100897.78;;;17.67;100.00
50103;BME280;35993;52.604;10.078;2023-05-23T00:13:54;100890.94;;;17.69;100.00
50103;BME280;35993;52.604;10.078;2023-05-23T00:16:20;100896.06;;;17.61;100.00
50103;BME280;35993;52.604;10.078;2023-05-23T00:18:47;100889.13;;;17.53;100.00
50103;BME280;35993;52.604;10.078;2023-05-23T00:21:12;100897.06;;;17.49;100.00
50103;BME280;35993;52.604;10.078;2023-05-23T00:23:38;100892.56;;;17.38;100.00
50103;BME280;35993;52.604;10.078;2023-05-23T00:26:07;100891.97;;;17.36;100.00
50103;BME280;35993;52.604;10.078;2023-05-23T00:28:33;100890.69;;;17.44;100.00
50103;BME280;35993;52.604;10.078;2023-05-23T00:30:58;100887.50;;;17.52;100.00
50103;BME280;35993;52.604;10.078;2023-05-23T00:33:25;100891.81;;;17.48;100.00
50103;BME280;35993;52.604;10.078;2023-05-23T00:35:50;100884.69;;;17.47;100.00
50103;BME280;35993;52.604;10.078;2023-05-23T00:38:17;100881.06;;;17.41;100.00
50103;BME280;35993;52.604;10.078;2023-05-23T00:40:42;100883.69;;;17.31;100.00
50103;BME280;35993;52.604;10.078;2023-05-23T00:43:08;100888.38;;;17.30;100.00
50103;BME280;35993;52.604;10.078;2023-05-23T00:45:33;100887.03;;;17.33;100.00
50103;BME280;35993;52.604;10.078;2023-05-23T00:47:59;100879.94;;;17.37;100.00
50103;BME280;35993;52.604;10.078;2023-05-23T00:50:27;100884.47;;;17.26;100.00
50103;BME280;35993;52.604;10.078;2023-05-23T00:52:54;100881.88;;;17.14;100.00
50103;BME280;35993;52.604;10.078;2023-05-23T00:55:22;100887.63;;;17.13;100.00
50103;BME280;35993;52.604;10.078;2023-05-23T00:57:49;100880.41;;;17.07;100.00
50103;BME280;35993;52.604;10.078;2023-05-23T01:00:16;100880.47;;;17.12;100.00
50103;BME280;35993;52.604;10.078;2023-05-23T01:02:45;100880.66;;;17.05;100.00
50103;BME280;35993;52.604;10.078;2023-05-23T01:05:13;100876.22;;;16.99;100.00
50103;BME280;35993;52.604;10.078;2023-05-23T01:07:45;100869.31;;;16.96;100.00
50103;BME280;35993;52.604;10.078;2023-05-23T01:10:12;100873.47;;;16.99;100.00
50103;BME280;35993;52.604;10.078;2023-05-23T01:13:00;100879.34;;;17.08;100.00
50103;BME280;35993;52.604;10.078;2023-05-23T01:15:37;100883.34;;;17.00;100.00
50103;BME280;35993;52.604;10.078;2023-05-23T01:18:24;100881.88;;;17.14;100.00
50103;BME280;35993;52.604;10.078;2023-05-23T01:20:58;100876.38;;;17.14;100.00
50103;BME280;35993;52.604;10.078;2023-05-23T01:23:34;100877.16;;;17.10;100.00
50103;BME280;35993;52.604;10.078;2023-05-23T01:29:06;100873.47;;;17.26;100.00
50103;BME280;35993;52.604;10.078;2023-05-23T01:31:41;100884.94;;;17.18;100.00
50103;BME280;35993;52.604;10.078;2023-05-23T01:34:08;100874.84;;;17.24;100.00
50103;BME280;35993;52.604;10.078;2023-05-23T01:36:39;100869.50;;;17.39;100.00
50103;BME280;35993;52.604;10.078;2023-05-23T01:39:05;100867.41;;;17.19;100.00
50103;BME280;35993;52.604;10.078;2023-05-23T01:41:30;100885.69;;;17.13;100.00
50103;BME280;35993;52.604;10.078;2023-05-23T01:43:57;100881.53;;;17.11;100.00
50103;BME280;35993;52.604;10.078;2023-05-23T01:46:26;100878.88;;;17.16;100.00
50103;BME280;35993;52.604;10.078;2023-05-23T01:48:53;100887.03;;;17.11;100.00
50103;BME280;35993;52.604;10.078;2023-05-23T01:51:21;100878.88;;;17.16;100.00
50103;BME280;35993;52.604;10.078;2023-05-23T01:53:49;100890.56;;;17.06;100.00
50103;BME280;35993;52.604;10.078;2023-05-23T01:56:15;100881.38;;;16.95;100.00
50103;BME280;35993;52.604;10.078;2023-05-23T01:58:41;100892.13;;;17.02;100.00
50103;BME280;35993;52.604;10.078;2023-05-23T02:01:08;100890.84;;;16.87;100.00
50103;BME280;35993;52.604;10.078;2023-05-23T02:03:35;100894.94;;;16.85;100.00
50103;BME280;35993;52.604;10.078;2023-05-23T02:06:00;100897.72;;;16.90;100.00
50103;BME280;35993;52.604;10.078;2023-05-23T02:08:26;100895.34;;;16.94;100.00
50103;BME280;35993;52.604;10.078;2023-05-23T02:10:51;100896.81;;;17.01;100.00
50103;BME280;35993;52.604;10.078;2023-05-23T02:13:18;100904.00;;;16.85;100.00
50103;BME280;35993;52.604;10.078;2023-05-23T02:15:44;100900.72;;;16.66;100.00
50103;BME280;35993;52.604;10.078;2023-05-23T02:18:09;100904.50;;;16.82;100.00
50103;BME280;35993;52.604;10.078;2023-05-23T02:20:38;100902.63;;;16.66;100.00
50103;BME280;35993;52.604;10.078;2023-05-23T02:23:05;100904.88;;;16.52;100.00
50103;BME280;35993;52.604;10.078;2023-05-23T02:25:30;100908.63;;;16.63;100.00
50103;BME280;35993;52.604;10.078;2023-05-23T02:27:56;100912.56;;;16.50;100.00
50103;BME280;35993;52.604;10.078;2023-05-23T02:30:21;100914.38;;;16.44;100.00
50103;BME280;35993;52.604;10.078;2023-05-23T02:32:48;100914.88;;;16.41;100.00
50103;BME280;35993;52.604;10.078;2023-05-23T02:35:14;100904.94;;;16.35;100.00
50103;BME280;35993;52.604;10.078;2023-05-23T02:37:39;100915.31;;;16.16;100.00
50103;BME280;35993;52.604;10.078;2023-05-23T02:40:06;100925.28;;;16.22;100.00
50103;BME280;35993;52.604;10.078;2023-05-23T02:42:32;100917.22;;;15.98;100.00
50103;BME280;35993;52.604;10.078;2023-05-23T02:44:59;100928.50;;;16.02;100.00
50103;BME280;35993;52.604;10.078;2023-05-23T02:47:24;100930.81;;;15.93;100.00
50103;BME280;35993;52.604;10.078;2023-05-23T02:49:50;100927.19;;;15.87;100.00
50103;BME280;35993;52.604;10.078;2023-05-23T02:52:16;100927.84;;;15.95;100.00
50103;BME280;35993;52.604;10.078;2023-05-23T02:54:42;100930.81;;;15.93;100.00
50103;BME280;35993;52.604;10.078;2023-05-23T02:57:07;100930.69;;;16.00;100.00
50103;BME280;35993;52.604;10.078;2023-05-23T02:59:36;100938.22;;;16.10;100.00
50103;BME280;35993;52.604;10.078;2023-05-23T03:02:01;100932.91;;;15.86;100.00
50103;BME280;35993;52.604;10.078;2023-05-23T03:04:27;100939.94;;;15.82;100.00
50103;BME280;35993;52.604;10.078;2023-05-23T03:06:53;100941.13;;;15.74;100.00
50103;BME280;35993;52.604;10.078;2023-05-23T03:09:20;100938.72;;;15.78;100.00
50103;BME280;35993;52.604;10.078;2023-05-23T03:11:46;100933.16;;;15.84;100.00
50103;BME280;35993;52.604;10.078;2023-05-23T03:14:11;100941.59;;;15.83;100.00
50103;BME280;35993;52.604;10.078;2023-05-23T03:16:37;100943.25;;;15.84;100.00
50103;BME280;35993;52.604;10.078;2023-05-23T03:19:02;100939.25;;;15.75;100.00
50103;BME280;35993;52.604;10.078;2023-05-23T03:21:30;100930.34;;;15.96;100.00
50103;BME280;35993;52.604;10.078;2023-05-23T03:23:56;100925.84;;;15.90;100.00
50103;BME280;35993;52.604;10.078;2023-05-23T03:26:22;100919.47;;;15.84;100.00
50103;BME280;35993;52.604;10.078;2023-05-23T03:28:49;100919.81;;;15.76;100.00
50103;BME280;35993;52.604;10.078;2023-05-23T03:31:18;100921.34;;;15.84;100.00
50103;BME280;35993;52.604;10.078;2023-05-23T03:33:43;100918.47;;;15.62;100.00
50103;BME280;35993;52.604;10.078;2023-05-23T03:36:09;100920.97;;;15.63;100.00
50103;BME280;35993;52.604;10.078;2023-05-23T03:38:34;100909.94;;;15.75;100.00
50103;BME280;35993;52.604;10.078;2023-05-23T03:41:00;100914.09;;;15.78;100.00
50103;BME280;35993;52.604;10.078;2023-05-23T03:43:25;100919.69;;;15.83;100.00
50103;BME280;35993;52.604;10.078;2023-05-23T03:45:52;100921.97;;;15.74;100.00
50103;BME280;35993;52.604;10.078;2023-05-23T03:48:17;100916.06;;;15.94;100.00
50103;BME280;35993;52.604;10.078;2023-05-23T03:50:43;100915.50;;;15.92;100.00
50103;BME280;35993;52.604;10.078;2023-05-23T03:53:10;100925.44;;;15.98;100.00
50103;BME280;35993;52.604;10.078;2023-05-23T03:55:38;100924.94;;;15.84;100.00
50103;BME280;35993;52.604;10.078;2023-05-23T03:58:04;100928.94;;;15.94;100.00
50103;BME280;35993;52.604;10.078;2023-05-23T04:00:31;100929.44;;;15.79;100.00
50103;BME280;35993;52.604;10.078;2023-05-23T04:02:58;100931.50;;;15.83;100.00
50103;BME280;35993;52.604;10.078;2023-05-23T04:05:23;100940.31;;;15.73;100.00
50103;BME280;35993;52.604;10.078;2023-05-23T04:07:49;100937.19;;;15.82;100.00
50103;BME280;35993;52.604;10.078;2023-05-23T04:10:16;100933.63;;;15.81;100.00
50103;BME280;35993;52.604;10.078;2023-05-23T04:12:43;100928.84;;;15.77;100.00
50103;BME280;35993;52.604;10.078;2023-05-23T04:15:12;100930.66;;;15.83;100.00
50103;BME280;35993;52.604;10.078;2023-05-23T04:17:49;100940.72;;;15.65;100.00
50103;BME280;35993;52.604;10.078;2023-05-23T04:20:16;100941.44;;;15.61;100.00
50103;BME280;35993;52.604;10.078;2023-05-23T04:22:42;100941.44;;;15.61;100.00
50103;BME280;35993;52.604;10.078;2023-05-23T04:25:08;100947.00;;;15.66;100.00
50103;BME280;35993;52.604;10.078;2023-05-23T04:27:38;100941.50;;;15.49;100.00
50103;BME280;35993;52.604;10.078;2023-05-23T04:30:06;100942.06;;;15.51;100.00
50103;BME280;35993;52.604;10.078;2023-05-23T04:32:34;100939.34;;;15.51;100.00
50103;BME280;35993;52.604;10.078;2023-05-23T04:35:01;100940.56;;;15.43;100.00
50103;BME280;35993;52.604;10.078;2023-05-23T04:37:28;100935.88;;;15.55;100.00
50103;BME280;35993;52.604;10.078;2023-05-23T04:39:57;100943.84;;;15.57;100.00
50103;BME280;35993;52.604;10.078;2023-05-23T04:42:48;100929.63;;;15.43;100.00
50103;BME280;35993;52.604;10.078;2023-05-23T04:45:25;100936.75;;;15.44;100.00
50103;BME280;35993;52.604;10.078;2023-05-23T04:48:11;100932.69;;;15.47;100.00
50103;BME280;35993;52.604;10.078;2023-05-23T04:50:43;100937.09;;;15.48;100.00
50103;BME280;35993;52.604;10.078;2023-05-23T04:53:11;100932.44;;;15.48;100.00
50103;BME280;35993;52.604;10.078;2023-05-23T04:55:37;100935.50;;;15.35;100.00
50103;BME280;35993;52.604;10.078;2023-05-23T04:58:04;100934.88;;;15.33;100.00
50103;BME280;35993;52.604;10.078;2023-05-23T05:00:30;100936.72;;;15.27;100.00
50103;BME280;35993;52.604;10.078;2023-05-23T05:02:56;100933.88;;;15.22;100.00
50103;BME280;35993;52.604;10.078;2023-05-23T05:05:26;100932.06;;;15.28;100.00
50103;BME280;35993;52.604;10.078;2023-05-23T05:07:52;100934.69;;;15.22;100.00
50103;BME280;35993;52.604;10.078;2023-05-23T05:10:19;100938.75;;;15.20;100.00
50103;BME280;35993;52.604;10.078;2023-05-23T05:12:45;100948.31;;;15.34;100.00
50103;BME280;35993;52.604;10.078;2023-05-23T05:15:15;100946.09;;;15.31;100.00
50103;BME280;35993;52.604;10.078;2023-05-23T05:17:43;100946.53;;;15.40;100.00
50103;BME280;35993;52.604;10.078;2023-05-23T05:20:11;100948.00;;;15.31;100.00
50103;BME280;35993;52.604;10.078;2023-05-23T05:22:37;100951.91;;;15.35;100.00
50103;BME280;35993;52.604;10.078;2023-05-23T05:25:09;100948.28;;;15.05;100.00
50103;BME280;35993;52.604;10.078;2023-05-23T05:27:35;100945.06;;;15.08;100.00
50103;BME280;35993;52.604;10.078;2023-05-23T05:30:07;100957.41;;;15.23;100.00
50103;BME280;35993;52.604;10.078;2023-05-23T05:32:41;100954.03;;;15.33;100.00
50103;BME280;35993;52.604;10.078;2023-05-23T05:35:10;100959.44;;;15.16;100.00
50103;BME280;35993;52.604;10.078;2023-05-23T05:37:39;100955.84;;;15.27;100.00
50103;BME280;35993;52.604;10.078;2023-05-23T05:40:05;100959.03;;;15.36;100.00
50103;BME280;35993;52.604;10.078;2023-05-23T05:42:34;100958.19;;;15.35;100.00
50103;BME280;35993;52.604;10.078;2023-05-23T05:45:00;100955.88;;;15.15;100.00
50103;BME280;35993;52.604;10.078;2023-05-23T05:47:27;100957.53;;;15.28;100.00
50103;BME280;35993;52.604;10.078;2023-05-23T05:49:54;100958.38;;;15.17;100.00
50103;BME280;35993;52.604;10.078;2023-05-23T05:52:19;100959.16;;;15.41;100.00
50103;BME280;35993;52.604;10.078;2023-05-23T05:54:45;100956.09;;;15.54;100.00
50103;BME280;35993;52.604;10.078;2023-05-23T05:57:10;100958.03;;;15.42;100.00
50103;BME280;35993;52.604;10.078;2023-05-23T05:59:36;100960.63;;;15.20;100.00
50103;BME280;35993;52.604;10.078;2023-05-23T06:02:02;100959.75;;;15.31;100.00
50103;BME280;35993;52.604;10.078;2023-05-23T06:04:28;100962.88;;;15.23;100.00
50103;BME280;35993;52.604;10.078;2023-05-23T06:06:54;100964.41;;;15.31;100.00
50103;BME280;35993;52.604;10.078;2023-05-23T06:09:20;100965.34;;;15.36;100.00
50103;BME280;35993;52.604;10.078;2023-05-23T06:11:46;100959.09;;;15.53;100.00
50103;BME280;35993;52.604;10.078;2023-05-23T06:14:11;100960.09;;;15.35;100.00
50103;BME280;35993;52.604;10.078;2023-05-23T06:16:40;100955.22;;;15.37;100.00
50103;BME280;35993;52.604;10.078;2023-05-23T06:19:06;100957.53;;;15.28;100.00
50103;BME280;35993;52.604;10.078;2023-05-23T06:21:33;100964.50;;;15.36;100.00
50103;BME280;35993;52.604;10.078;2023-05-23T06:23:58;100955.19;;;15.49;100.00
50103;BME280;35993;52.604;10.078;2023-05-23T06:26:24;100956.78;;;15.62;100.00
50103;BME280;35993;52.604;10.078;2023-05-23T06:28:51;100950.16;;;15.86;100.00
50103;BME280;35993;52.604;10.078;2023-05-23T06:31:16;100955.22;;;15.66;100.00
50103;BME280;35993;52.604;10.078;2023-05-23T06:33:42;100956.03;;;15.66;100.00
50103;BME280;35993;52.604;10.078;2023-05-23T06:36:09;100969.81;;;15.71;100.00
50103;BME280;35993;52.604;10.078;2023-05-23T06:38:35;100958.13;;;15.59;100.00
50103;BME280;35993;52.604;10.078;2023-05-23T06:41:00;100954.53;;;15.59;100.00
50103;BME280;35993;52.604;10.078;2023-05-23T06:43:27;100956.53;;;15.63;100.00
50103;BME280;35993;52.604;10.078;2023-05-23T06:46:02;100958.56;;;15.68;100.00
50103;BME280;35993;52.604;10.078;2023-05-23T06:48:28;100969.88;;;15.60;100.00
50103;BME280;35993;52.604;10.078;2023-05-23T06:50:54;100966.88;;;15.61;100.00
50103;BME280;35993;52.604;10.078;2023-05-23T06:53:20;100964.59;;;15.70;100.00
50103;BME280;35993;52.604;10.078;2023-05-23T06:55:47;100968.47;;;15.57;100.00
50103;BME280;35993;52.604;10.078;2023-05-23T06:58:16;100968.31;;;15.64;100.00
50103;BME280;35993;52.604;10.078;2023-05-23T07:00:42;100977.28;;;15.59;100.00
50103;BME280;35993;52.604;10.078;2023-05-23T07:03:23;100967.41;;;15.58;100.00
50103;BME280;35993;52.604;10.078;2023-05-23T07:05:49;100977.69;;;15.39;100.00
50103;BME280;35993;52.604;10.078;2023-05-23T07:08:16;100978.38;;;15.46;100.00
50103;BME280;35993;52.604;10.078;2023-05-23T07:10:53;100980.03;;;15.47;100.00
50103;BME280;35993;52.604;10.078;2023-05-23T07:13:29;100972.47;;;15.37;100.00
50103;BME280;35993;52.604;10.078;2023-05-23T07:15:55;100976.53;;;15.35;100.00
50103;BME280;35993;52.604;10.078;2023-05-23T07:18:21;100973.63;;;15.42;100.00
50103;BME280;35993;52.604;10.078;2023-05-23T07:20:47;100983.50;;;15.43;100.00
50103;BME280;35993;52.604;10.078;2023-05-23T07:23:15;100980.38;;;15.51;100.00
50103;BME280;35993;52.604;10.078;2023-05-23T07:25:41;100982.88;;;15.52;100.00
50103;BME280;35993;52.604;10.078;2023-05-23T07:28:15;100989.88;;;15.60;100.00
50103;BME280;35993;52.604;10.078;2023-05-23T07:30:41;100990.75;;;15.49;100.00
50103;BME280;35993;52.604;10.078;2023-05-23T07:33:07;100991.00;;;15.35;100.00
50103;BME280;35993;52.604;10.078;2023-05-23T07:35:33;100989.13;;;15.24;100.00
50103;BME280;35993;52.604;10.078;2023-05-23T07:37:59;100990.09;;;15.18;100.00
50103;BME280;35993;52.604;10.078;2023-05-23T07:40:25;100989.53;;;15.16;100.00
50103;BME280;35993;52.604;10.078;2023-05-23T07:42:50;100993.41;;;15.32;100.00
50103;BME280;35993;52.604;10.078;2023-05-23T07:45:17;100995.41;;;15.36;100.00
50103;BME280;35993;52.604;10.078;2023-05-23T07:47:43;101000.06;;;15.36;100.00
50103;BME280;35993;52.604;10.078;2023-05-23T07:50:09;101002.66;;;15.43;100.00
50103;BME280;35993;52.604;10.078;2023-05-23T07:52:34;101007.19;;;15.37;100.00
50103;BME280;35993;52.604;10.078;2023-05-23T07:55:03;101002.22;;;15.34;100.00
50103;BME280;35993;52.604;10.078;2023-05-23T07:57:29;101000.63;;;15.38;100.00
50103;BME280;35993;52.604;10.078;2023-05-23T07:59:55;101002.88;;;15.53;100.00
50103;BME280;35993;52.604;10.078;2023-05-23T08:02:22;101003.47;;;15.43;100.00
50103;BME280;35993;52.604;10.078;2023-05-23T08:04:49;101003.88;;;15.35;100.00
50103;BME280;35993;52.604;10.078;2023-05-23T08:07:15;101010.06;;;15.30;100.00
50103;BME280;35993;52.604;10.078;2023-05-23T08:09:48;101006.75;;;15.16;100.00
50103;BME280;35993;52.604;10.078;2023-05-23T08:12:17;101021.88;;;15.07;100.00
50103;BME280;35993;52.604;10.078;2023-05-23T08:14:44;101017.56;;;15.11;100.00
50103;BME280;35993;52.604;10.078;2023-05-23T08:17:17;101021.50;;;15.03;100.00
50103;BME280;35993;52.604;10.078;2023-05-23T08:19:43;101025.09;;;15.04;100.00
50103;BME280;35993;52.604;10.078;2023-05-23T08:22:09;101029.81;;;15.08;100.00
50103;BME280;35993;52.604;10.078;2023-05-23T08:24:34;101033.19;;;14.99;100.00
50103;BME280;35993;52.604;10.078;2023-05-23T08:27:00;101032.91;;;14.88;100.00
50103;BME280;35993;52.604;10.078;2023-05-23T08:29:26;101030.06;;;14.83;100.00
50103;BME280;35993;52.604;10.078;2023-05-23T08:31:52;101041.00;;;14.83;100.00
50103;BME280;35993;52.604;10.078;2023-05-23T08:34:18;101046.13;;;14.91;100.00
50103;BME280;35993;52.604;10.078;2023-05-23T08:36:43;101041.97;;;14.89;100.00
50103;BME280;35993;52.604;10.078;2023-05-23T08:39:14;101042.22;;;14.99;100.00
50103;BME280;35993;52.604;10.078;2023-05-23T08:41:47;101048.00;;;14.91;100.00
50103;BME280;35993;52.604;10.078;2023-05-23T08:44:12;101054.78;;;14.88;100.00
50103;BME280;35993;52.604;10.078;2023-05-23T08:46:45;101058.13;;;14.79;100.00
50103;BME280;35993;52.604;10.078;2023-05-23T08:49:18;101069.56;;;14.87;100.00
50103;BME280;35993;52.604;10.078;2023-05-23T08:51:44;101073.81;;;14.71;100.00
50103;BME280;35993;52.604;10.078;2023-05-23T08:54:17;101068.06;;;14.61;100.00
50103;BME280;35993;52.604;10.078;2023-05-23T08:56:43;101075.06;;;14.57;100.00
50103;BME280;35993;52.604;10.078;2023-05-23T08:59:10;101079.59;;;14.63;100.00
50103;BME280;35993;52.604;10.078;2023-05-23T09:01:37;101085.50;;;14.60;100.00
50103;BME280;35993;52.604;10.078;2023-05-23T09:04:07;101075.72;;;14.71;100.00
50103;BME280;35993;52.604;10.078;2023-05-23T09:06:38;101090.06;;;14.66;100.00
50103;BME280;35993;52.604;10.078;2023-05-23T09:09:05;101096.56;;;14.53;100.00
50103;BME280;35993;52.604;10.078;2023-05-23T09:11:31;101104.44;;;14.62;100.00
50103;BME280;35993;52.604;10.078;2023-05-23T09:13:58;101098.47;;;14.53;100.00
50103;BME280;35993;52.604;10.078;2023-05-23T09:16:31;101115.06;;;14.51;100.00
50103;BME280;35993;52.604;10.078;2023-05-23T09:18:58;101112.53;;;14.38;100.00
50103;BME280;35993;52.604;10.078;2023-05-23T09:21:24;101112.56;;;14.50;100.00
50103;BME280;35993;52.604;10.078;2023-05-23T09:23:57;101116.56;;;14.66;100.00
50103;BME280;35993;52.604;10.078;2023-05-23T09:26:24;101122.41;;;14.69;100.00
50103;BME280;35993;52.604;10.078;2023-05-23T09:28:50;101122.31;;;14.57;100.00
50103;BME280;35993;52.604;10.078;2023-05-23T09:31:15;101131.44;;;14.39;100.00
50103;BME280;35993;52.604;10.078;2023-05-23T09:33:44;101132.44;;;14.26;100.00
50103;BME280;35993;52.604;10.078;2023-05-23T09:36:11;101142.06;;;14.29;100.00
50103;BME280;35993;52.604;10.078;2023-05-23T09:38:41;101151.41;;;14.21;100.00
50103;BME280;35993;52.604;10.078;2023-05-23T09:41:08;101151.03;;;14.36;100.00
50103;BME280;35993;52.604;10.078;2023-05-23T09:43:49;101156.47;;;14.36;100.00
50103;BME280;35993;52.604;10.078;2023-05-23T09:46:15;101149.47;;;14.10;100.00
50103;BME280;35993;52.604;10.078;2023-05-23T09:48:46;101162.19;;;14.16;100.00
50103;BME280;35993;52.604;10.078;2023-05-23T09:51:12;101162.09;;;14.23;100.00
50103;BME280;35993;52.604;10.078;2023-05-23T09:53:37;101157.81;;;14.15;100.00
50103;BME280;35993;52.604;10.078;2023-05-23T09:56:03;101171.66;;;14.32;100.00
50103;BME280;35993;52.604;10.078;2023-05-23T09:58:29;101171.72;;;14.44;100.00
50103;BME280;35993;52.604;10.078;2023-05-23T10:00:55;101177.13;;;14.32;100.00
50103;BME280;35993;52.604;10.078;2023-05-23T10:03:39;101184.44;;;14.20;100.00
50103;BME280;35993;52.604;10.078;2023-05-23T10:06:14;101181.78;;;14.13;100.00
50103;BME280;35993;52.604;10.078;2023-05-23T10:08:49;101188.59;;;14.04;100.00
50103;BME280;35993;52.604;10.078;2023-05-23T10:13:58;101198.31;;;14.00;100.00
50103;BME280;35993;52.604;10.078;2023-05-23T10:19:22;101213.69;;;14.13;100.00
50103;BME280;35993;52.604;10.078;2023-05-23T10:21:50;101213.16;;;14.04;100.00
50103;BME280;35993;52.604;10.078;2023-05-23T10:24:20;101216.34;;;14.19;100.00
50103;BME280;35993;52.604;10.078;2023-05-23T10:26:46;101229.47;;;13.92;100.00
50103;BME280;35993;52.604;10.078;2023-05-23T10:29:12;101228.41;;;14.12;100.00
50103;BME280;35993;52.604;10.078;2023-05-23T10:31:38;101227.72;;;14.16;100.00
50103;BME280;35993;52.604;10.078;2023-05-23T10:34:23;101228.94;;;14.20;100.00
50103;BME280;35993;52.604;10.078;2023-05-23T10:36:58;101230.41;;;14.04;100.00
50103;BME280;35993;52.604;10.078;2023-05-23T10:42:03;101240.31;;;13.99;100.00
50103;BME280;35993;52.604;10.078;2023-05-23T10:44:31;101251.66;;;13.77;100.00
50103;BME280;35993;52.604;10.078;2023-05-23T10:46:58;101247.13;;;13.71;100.00
50103;BME280;35993;52.604;10.078;2023-05-23T10:49:45;101255.66;;;13.56;100.00
50103;BME280;35993;52.604;10.078;2023-05-23T10:52:13;101262.16;;;13.55;100.00
50103;BME280;35993;52.604;10.078;2023-05-23T10:57:09;101263.31;;;13.66;100.00
50103;BME280;35993;52.604;10.078;2023-05-23T10:59:36;101263.69;;;13.69;100.00
50103;BME280;35993;52.604;10.078;2023-05-23T11:02:12;101266.31;;;13.83;100.00
50103;BME280;35993;52.604;10.078;2023-05-23T11:04:39;101266.66;;;13.68;100.00
50103;BME280;35993;52.604;10.078;2023-05-23T11:07:04;101274.78;;;13.74;100.00
50103;BME280;35993;52.604;10.078;2023-05-23T11:09:30;101282.75;;;13.76;100.00
50103;BME280;35993;52.604;10.078;2023-05-23T11:12:03;101282.25;;;13.60;100.00
50103;BME280;35993;52.604;10.078;2023-05-23T11:19:38;101293.91;;;13.49;100.00
50103;BME280;35993;52.604;10.078;2023-05-23T11:22:07;101294.63;;;13.38;100.00
50103;BME280;35993;52.604;10.078;2023-05-23T11:24:52;101303.25;;;13.28;100.00
50103;BME280;35993;52.604;10.078;2023-05-23T11:27:32;101303.53;;;13.20;100.00
50103;BME280;35993;52.604;10.078;2023-05-23T11:32:35;101298.09;;;13.13;100.00
50103;BME280;35993;52.604;10.078;2023-05-23T11:35:03;101303.72;;;13.18;100.00
50103;BME280;35993;52.604;10.078;2023-05-23T11:37:30;101303.72;;;13.50;100.00
50103;BME280;35993;52.604;10.078;2023-05-23T11:39:56;101316.72;;;13.55;100.00
50103;BME280;35993;52.604;10.078;2023-05-23T11:42:22;101313.03;;;13.42;100.00
50103;BME280;35993;52.604;10.078;2023-05-23T11:44:51;101317.69;;;13.35;100.00
50103;BME280;35993;52.604;10.078;2023-05-23T11:47:18;101329.63;;;13.34;100.00
50103;BME280;35993;52.604;10.078;2023-05-23T11:49:47;101320.41;;;13.35;100.00
50103;BME280;35993;52.604;10.078;2023-05-23T11:52:12;101325.44;;;13.38;100.00
50103;BME280;35993;52.604;10.078;2023-05-23T11:54:41;101328.66;;;13.22;100.00
50103;BME280;35993;52.604;10.078;2023-05-23T11:57:12;101335.94;;;13.41;100.00
50103;BME280;35993;52.604;10.078;2023-05-23T11:59:38;101331.06;;;13.43;100.00
50103;BME280;35993;52.604;10.078;2023-05-23T12:02:05;101338.63;;;13.09;100.00
50103;BME280;35993;52.604;10.078;2023-05-23T12:04:33;101338.03;;;13.39;100.00
50103;BME280;35993;52.604;10.078;2023-05-23T12:07:03;101359.13;;;13.51;100.00
50103;BME280;35993;52.604;10.078;2023-05-23T12:09:29;101347.06;;;13.65;100.00
50103;BME280;35993;52.604;10.078;2023-05-23T12:11:54;101353.56;;;13.64;100.00
50103;BME280;35993;52.604;10.078;2023-05-23T12:14:20;101353.00;;;13.55;100.00
50103;BME280;35993;52.604;10.078;2023-05-23T12:16:46;101361.34;;;13.60;100.00
50103;BME280;35993;52.604;10.078;2023-05-23T12:19:12;101361.09;;;13.69;100.00
50103;BME280;35993;52.604;10.078;2023-05-23T12:21:45;101366.16;;;13.65;100.00
50103;BME280;35993;52.604;10.078;2023-05-23T12:24:21;101357.19;;;13.83;100.00
50103;BME280;35993;52.604;10.078;2023-05-23T12:26:52;101362.56;;;14.15;100.00
50103;BME280;35993;52.604;10.078;2023-05-23T12:29:27;101355.91;;;14.11;98.14
50103;BME280;35993;52.604;10.078;2023-05-23T12:31:53;101358.16;;;13.96;96.43
50103;BME280;35993;52.604;10.078;2023-05-23T12:34:19;101364.91;;;14.12;96.65
50103;BME280;35993;52.604;10.078;2023-05-23T12:36:45;101362.88;;;14.07;93.65
50103;BME280;35993;52.604;10.078;2023-05-23T12:39:13;101354.16;;;14.17;92.06
50103;BME280;35993;52.604;10.078;2023-05-23T12:41:43;101357.53;;;14.37;90.64
50103;BME280;35993;52.604;10.078;2023-05-23T12:44:09;101364.59;;;14.45;89.85
50103;BME280;35993;52.604;10.078;2023-05-23T12:46:35;101363.50;;;14.46;85.65
50103;BME280;35993;52.604;10.078;2023-05-23T12:49:00;101358.72;;;14.60;84.95
50103;BME280;35993;52.604;10.078;2023-05-23T12:51:26;101349.19;;;14.88;84.98
50103;BME280;35993;52.604;10.078;2023-05-23T12:53:52;101367.81;;;15.10;85.31
50103;BME280;35993;52.604;10.078;2023-05-23T12:56:19;101341.38;;;14.73;81.62